createdAt,value
2018-06-16T00:03:59.700Z,87.90
2018-06-16T00:08:52.965Z,88.40
2018-06-16T00:13:46.357Z,89.60
2018-06-16T00:18:39.674Z,90.00
2018-06-16T00:23:32.920Z,90.10
2018-06-16T00:28:26.159Z,90.40
2018-06-16T00:33:19.406Z,90.50
2018-06-16T00:38:12.675Z,90.60
2018-06-16T00:43:05.960Z,90.70
2018-06-16T00:47:59.222Z,91.00
2018-06-16T00:52:52.658Z,91.40
2018-06-16T00:57:47.982Z,91.60
2018-06-16T01:02:41.357Z,92.10
2018-06-16T01:07:34.770Z,92.40
2018-06-16T01:12:28.170Z,92.90
2018-06-16T01:17:21.451Z,93.20
2018-06-16T01:22:14.759Z,93.40
2018-06-16T01:27:08.017Z,93.70
2018-06-16T01:32:02.095Z,93.90
2018-06-16T01:36:55.363Z,94.00
2018-06-16T01:41:48.610Z,94.00
2018-06-16T01:46:41.864Z,94.30
2018-06-16T01:51:35.144Z,94.30
2018-06-16T01:56:28.394Z,94.40
2018-06-16T02:01:21.638Z,94.60
2018-06-16T02:06:14.935Z,94.90
2018-06-16T02:11:08.208Z,94.90
2018-06-16T02:16:01.499Z,95.10
2018-06-16T02:20:54.911Z,95.30
2018-06-16T02:25:48.226Z,95.30
2018-06-16T02:30:41.470Z,95.60
2018-06-16T02:35:34.725Z,95.50
2018-06-16T02:40:28.020Z,95.40
2018-06-16T02:45:21.250Z,95.40
2018-06-16T02:50:14.545Z,95.20
2018-06-16T02:55:07.813Z,95.30
2018-06-16T03:00:01.040Z,95.10
2018-06-16T03:04:54.924Z,95.10
2018-06-16T03:09:48.172Z,95.20
2018-06-16T03:14:41.383Z,95.20
2018-06-16T03:19:34.632Z,95.10
2018-06-16T03:24:27.845Z,95.00
2018-06-16T03:29:21.128Z,94.90
2018-06-16T03:34:14.357Z,95.10
2018-06-16T03:39:08.395Z,95.20
2018-06-16T03:44:01.653Z,95.00
2018-06-16T03:48:54.904Z,94.90
2018-06-16T03:53:48.169Z,94.80
2018-06-16T03:58:41.659Z,94.60
2018-06-16T04:03:34.921Z,94.50
2018-06-16T04:08:28.144Z,94.40
2018-06-16T04:13:21.391Z,94.00
2018-06-16T04:18:14.650Z,93.60
2018-06-16T04:23:07.895Z,93.20
2018-06-16T04:28:01.130Z,92.90
2018-06-16T04:32:54.385Z,92.50
2018-06-16T04:37:47.634Z,92.30
2018-06-16T04:42:40.904Z,92.30
2018-06-16T04:47:34.286Z,92.40
2018-06-16T04:52:27.522Z,92.60
2018-06-16T04:57:20.813Z,92.60
2018-06-16T05:02:14.163Z,92.70
2018-06-16T05:07:07.501Z,92.60
2018-06-16T05:12:00.732Z,91.80
2018-06-16T05:16:54.038Z,91.20
2018-06-16T05:21:47.329Z,90.70
2018-06-16T05:26:40.596Z,90.40
2018-06-16T05:31:33.853Z,89.60
2018-06-16T05:36:27.099Z,86.70
2018-06-16T05:41:20.330Z,85.40
2018-06-16T05:46:13.853Z,83.50
2018-06-16T05:51:07.125Z,81.90
2018-06-16T05:56:00.379Z,81.20
2018-06-16T06:00:53.630Z,78.50
2018-06-16T06:05:46.890Z,75.00
2018-06-16T06:10:40.111Z,74.40
2018-06-16T06:15:33.364Z,71.10
2018-06-16T06:20:26.627Z,64.80
2018-06-16T06:25:19.881Z,60.00
2018-06-16T06:30:16.391Z,61.90
2018-06-16T06:35:09.676Z,62.40
2018-06-16T06:40:03.057Z,63.50
2018-06-16T06:44:56.438Z,64.50
2018-06-16T06:49:49.712Z,64.60
2018-06-16T06:54:42.984Z,64.90
2018-06-16T06:59:36.281Z,63.60
2018-06-16T07:04:29.635Z,65.40
2018-06-16T07:09:22.925Z,65.40
2018-06-16T07:14:16.197Z,66.10
2018-06-16T07:19:09.446Z,63.00
2018-06-16T07:24:02.703Z,57.60
2018-06-16T07:28:56.056Z,54.70
2018-06-16T07:33:49.375Z,54.40
2018-06-16T07:38:42.644Z,53.60
2018-06-16T07:43:36.290Z,55.70
2018-06-16T07:48:29.519Z,56.20
2018-06-16T07:53:22.746Z,56.00
2018-06-16T07:58:16.025Z,58.40
2018-06-16T08:03:09.279Z,59.10
2018-06-16T08:08:02.579Z,58.40
2018-06-16T08:12:55.904Z,56.10
2018-06-16T08:17:49.270Z,57.80
2018-06-16T08:22:43.130Z,60.30
2018-06-16T08:27:36.426Z,59.40
2018-06-16T08:32:29.729Z,58.60
2018-06-16T08:37:23.037Z,56.90
2018-06-16T08:42:16.345Z,57.90
2018-06-16T08:47:10.454Z,58.50
2018-06-16T08:52:03.682Z,57.10
2018-06-16T08:56:56.914Z,55.30
2018-06-16T09:01:50.173Z,54.10
2018-06-16T09:06:43.648Z,53.10
2018-06-16T09:11:37.020Z,49.70
2018-06-16T09:16:30.249Z,47.80
2018-06-16T09:21:23.507Z,48.10
2018-06-16T09:26:16.852Z,46.70
2018-06-16T09:31:10.109Z,44.00
2018-06-16T09:36:03.383Z,44.00
2018-06-16T09:40:56.715Z,44.40
2018-06-16T09:45:49.956Z,42.10
2018-06-16T09:50:46.237Z,40.00
2018-06-16T09:55:39.505Z,38.60
2018-06-16T10:00:38.420Z,36.50
2018-06-16T10:05:31.684Z,35.20
2018-06-16T10:10:25.025Z,37.80
2018-06-16T10:15:18.286Z,40.60
2018-06-16T10:20:11.533Z,40.40
2018-06-16T10:25:04.788Z,41.70
2018-06-16T10:29:58.024Z,43.30
2018-06-16T10:34:52.160Z,42.50
2018-06-16T10:39:45.433Z,43.30
2018-06-16T10:44:38.712Z,43.30
2018-06-16T10:49:31.983Z,43.90
2018-06-16T10:54:25.241Z,43.40
2018-06-16T10:59:18.533Z,43.70
2018-06-16T11:04:11.792Z,44.90
2018-06-16T11:09:07.822Z,44.40
2018-06-16T11:14:01.046Z,43.30
2018-06-16T11:18:54.468Z,42.40
2018-06-16T11:23:47.754Z,42.80
2018-06-16T11:28:41.022Z,42.60
2018-06-16T11:33:34.287Z,43.00
2018-06-16T11:38:27.530Z,42.40
2018-06-16T11:43:20.952Z,42.40
2018-06-16T11:48:14.195Z,43.00
2018-06-16T11:53:07.501Z,46.30
2018-06-16T11:58:02.148Z,46.30
2018-06-16T12:02:55.542Z,46.10
2018-06-16T12:07:49.083Z,45.20
2018-06-16T12:12:42.340Z,44.60
2018-06-16T12:17:35.622Z,44.10
2018-06-16T12:22:28.886Z,45.00
2018-06-16T12:27:22.133Z,45.30
2018-06-16T12:32:15.364Z,46.60
2018-06-16T12:37:08.609Z,46.00
2018-06-16T12:42:01.862Z,45.80
2018-06-16T12:46:55.302Z,45.50
2018-06-16T12:51:49.336Z,45.70
2018-06-16T12:56:43.321Z,45.50
2018-06-16T13:01:36.549Z,47.10
2018-06-16T13:06:30.239Z,47.50
2018-06-16T13:11:23.555Z,47.10
2018-06-16T13:16:17.365Z,47.00
2018-06-16T13:21:10.787Z,47.40
2018-06-16T13:26:04.144Z,47.50
2018-06-16T13:30:57.391Z,47.10
2018-06-16T13:35:50.696Z,48.20
2018-06-16T13:40:44.611Z,50.00
2018-06-16T13:45:38.156Z,50.60
2018-06-16T13:50:31.475Z,51.40
2018-06-16T13:55:24.716Z,52.50
2018-06-16T14:00:18.111Z,52.10
2018-06-16T14:05:11.373Z,52.80
2018-06-16T14:10:04.677Z,50.80
2018-06-16T14:14:57.965Z,50.30
2018-06-16T14:19:51.227Z,50.30
2018-06-16T14:24:44.515Z,49.10
2018-06-16T14:29:37.784Z,47.50
2018-06-16T14:34:31.048Z,47.40
2018-06-16T14:39:24.333Z,50.10
2018-06-16T14:44:17.639Z,48.10
2018-06-16T14:49:10.927Z,48.40
2018-06-16T14:54:04.269Z,49.00
2018-06-16T14:58:57.523Z,49.50
2018-06-16T15:03:50.842Z,50.40
2018-06-16T15:08:44.093Z,50.50
2018-06-16T15:13:37.407Z,51.10
2018-06-16T15:18:30.680Z,51.60
2018-06-16T15:23:23.994Z,51.20
2018-06-16T15:28:17.310Z,52.00
2018-06-16T15:33:10.578Z,52.20
2018-06-16T15:38:03.857Z,52.60
2018-06-16T15:42:57.125Z,52.20
2018-06-16T15:47:50.752Z,52.40
2018-06-16T15:52:44.017Z,53.20
2018-06-16T15:57:37.273Z,56.60
2018-06-16T16:02:30.605Z,57.50
2018-06-16T16:07:23.846Z,74.50
2018-06-16T16:12:17.085Z,87.70
2018-06-16T16:17:10.370Z,91.50
2018-06-16T16:22:03.634Z,92.90
2018-06-16T16:26:56.881Z,94.20
2018-06-16T16:31:50.151Z,93.20
2018-06-16T16:36:43.464Z,93.20
2018-06-16T16:41:36.869Z,91.60
2018-06-16T16:46:30.141Z,91.50
2018-06-16T16:51:23.384Z,91.50
2018-06-16T16:56:16.739Z,91.70
2018-06-16T17:01:10.266Z,90.60
2018-06-16T17:06:03.710Z,90.70
2018-06-16T17:10:56.970Z,90.80
2018-06-16T17:15:50.212Z,90.30
2018-06-16T17:20:43.513Z,88.90
2018-06-16T17:25:36.776Z,89.30
2018-06-16T17:30:30.060Z,86.90
2018-06-16T17:35:23.332Z,88.90
2018-06-16T17:40:17.515Z,90.10
2018-06-16T17:45:10.775Z,90.50
2018-06-16T17:50:04.115Z,90.10
2018-06-16T17:54:57.430Z,91.50
2018-06-16T17:59:50.679Z,93.10
2018-06-16T18:04:43.974Z,96.80
2018-06-16T18:09:37.243Z,98.10
2018-06-16T18:14:30.506Z,98.70
2018-06-16T18:19:23.882Z,99.90
2018-06-16T18:24:17.113Z,99.60
2018-06-16T18:29:10.378Z,98.60
2018-06-16T18:34:03.744Z,98.30
2018-06-16T18:38:56.991Z,97.50
2018-06-16T18:43:50.241Z,97.60
2018-06-16T18:48:43.500Z,97.80
2018-06-16T18:53:36.782Z,97.80
2018-06-16T18:58:30.069Z,98.40
2018-06-16T19:03:23.335Z,98.50
2018-06-16T19:08:16.784Z,98.80
2018-06-16T19:13:10.123Z,98.20
2018-06-16T19:18:03.521Z,98.80
2018-06-16T19:22:56.808Z,99.40
2018-06-16T19:27:50.087Z,99.10
2018-06-16T19:32:43.323Z,99.50
2018-06-16T19:37:36.571Z,99.20
2018-06-16T19:42:30.053Z,99.50
2018-06-16T19:47:23.362Z,99.30
2018-06-16T19:52:16.668Z,99.40
2018-06-16T19:57:10.078Z,99.80
2018-06-16T20:02:03.392Z,99.10
2018-06-16T20:06:56.610Z,98.70
2018-06-16T20:11:49.945Z,97.60
2018-06-16T20:16:43.180Z,96.90
2018-06-16T20:21:36.436Z,96.30
2018-06-16T20:26:29.936Z,95.80
2018-06-16T20:31:23.265Z,96.80
2018-06-16T20:36:16.504Z,96.50
2018-06-16T20:41:10.543Z,97.20
2018-06-16T20:46:04.119Z,96.90
2018-06-16T20:50:57.364Z,97.10
2018-06-16T20:55:50.619Z,98.00
2018-06-16T21:00:43.918Z,98.30
2018-06-16T21:05:37.182Z,97.70
2018-06-16T21:10:30.439Z,98.70
2018-06-16T21:15:23.729Z,98.70
2018-06-16T21:20:17.016Z,98.70
2018-06-16T21:25:10.291Z,98.10
2018-06-16T21:30:06.904Z,97.90
2018-06-16T21:35:00.240Z,98.20
2018-06-16T21:39:53.580Z,98.00
2018-06-16T21:44:46.836Z,98.10
2018-06-16T21:49:40.057Z,98.30
2018-06-16T21:54:33.302Z,98.20
2018-06-16T21:59:26.578Z,98.30
2018-06-16T22:04:19.833Z,98.40
2018-06-16T22:09:13.115Z,98.40
2018-06-16T22:14:06.422Z,98.30
2018-06-16T22:18:59.680Z,98.30
2018-06-16T22:23:52.929Z,98.50
2018-06-16T22:28:46.206Z,98.40
2018-06-16T22:33:39.446Z,98.60
2018-06-16T22:38:32.706Z,98.80
2018-06-16T22:43:25.957Z,99.00
2018-06-16T22:48:19.231Z,99.20
2018-06-16T22:53:12.462Z,99.40
2018-06-16T22:58:05.756Z,99.30
2018-06-16T23:02:59.016Z,99.30
2018-06-16T23:07:52.830Z,99.30
2018-06-16T23:12:46.081Z,99.10
2018-06-16T23:17:39.345Z,99.10
2018-06-16T23:22:32.567Z,99.40
2018-06-16T23:27:25.810Z,99.10
2018-06-16T23:32:19.079Z,99.00
2018-06-16T23:37:12.328Z,98.70
2018-06-16T23:42:05.595Z,98.50
2018-06-16T23:46:58.846Z,98.50
2018-06-16T23:51:52.132Z,98.60
2018-06-16T23:56:45.374Z,98.60
